sensor_id;sensor_type;location;lat;lon;timestamp;temperature;humidity
9542;DHT22;4809;48.224;8.572;2023-05-07T00:00:32;12.40;99.90
9542;DHT22;4809;48.224;8.572;2023-05-07T00:02:59;12.40;99.90
9542;DHT22;4809;48.224;8.572;2023-05-07T00:05:25;12.40;99.90
9542;DHT22;4809;48.224;8.572;2023-05-07T00:07:53;12.40;99.90
9542;DHT22;4809;48.224;8.572;2023-05-07T00:10:19;12.40;99.90
9542;DHT22;4809;48.224;8.572;2023-05-07T00:12:45;12.40;99.90
9542;DHT22;4809;48.224;8.572;2023-05-07T00:15:11;12.40;99.90
9542;DHT22;4809;48.224;8.572;2023-05-07T00:17:37;12.40;99.90
9542;DHT22;4809;48.224;8.572;2023-05-07T00:20:03;12.40;99.90
9542;DHT22;4809;48.224;8.572;2023-05-07T00:22:31;12.40;99.90
9542;DHT22;4809;48.224;8.572;2023-05-07T00:24:57;12.40;99.90
9542;DHT22;4809;48.224;8.572;2023-05-07T00:27:24;12.40;99.90
9542;DHT22;4809;48.224;8.572;2023-05-07T00:29:50;12.30;99.90
9542;DHT22;4809;48.224;8.572;2023-05-07T00:32:15;12.20;99.90
9542;DHT22;4809;48.224;8.572;2023-05-07T00:34:42;12.10;99.90
9542;DHT22;4809;48.224;8.572;2023-05-07T00:37:07;12.00;99.90
9542;DHT22;4809;48.224;8.572;2023-05-07T00:39:34;12.00;99.90
9542;DHT22;4809;48.224;8.572;2023-05-07T00:42:00;12.00;99.90
9542;DHT22;4809;48.224;8.572;2023-05-07T00:44:26;12.00;99.90
9542;DHT22;4809;48.224;8.572;2023-05-07T00:46:52;12.10;99.90
9542;DHT22;4809;48.224;8.572;2023-05-07T00:49:19;12.10;99.90
9542;DHT22;4809;48.224;8.572;2023-05-07T00:51:45;12.10;99.90
9542;DHT22;4809;48.224;8.572;2023-05-07T00:54:10;12.20;99.90
9542;DHT22;4809;48.224;8.572;2023-05-07T00:56:36;12.10;99.90
9542;DHT22;4809;48.224;8.572;2023-05-07T00:59:03;12.10;99.90
9542;DHT22;4809;48.224;8.572;2023-05-07T01:01:29;12.00;99.90
9542;DHT22;4809;48.224;8.572;2023-05-07T01:03:55;12.00;99.90
9542;DHT22;4809;48.224;8.572;2023-05-07T01:06:21;12.00;99.90
9542;DHT22;4809;48.224;8.572;2023-05-07T01:08:49;12.10;99.90
9542;DHT22;4809;48.224;8.572;2023-05-07T01:11:16;12.00;99.90
9542;DHT22;4809;48.224;8.572;2023-05-07T01:13:43;12.00;99.90
9542;DHT22;4809;48.224;8.572;2023-05-07T01:16:09;12.00;99.90
9542;DHT22;4809;48.224;8.572;2023-05-07T01:18:35;12.00;99.90
9542;DHT22;4809;48.224;8.572;2023-05-07T01:21:01;12.00;99.90
9542;DHT22;4809;48.224;8.572;2023-05-07T01:23:29;12.10;99.90
9542;DHT22;4809;48.224;8.572;2023-05-07T01:25:56;12.00;99.90
9542;DHT22;4809;48.224;8.572;2023-05-07T01:28:22;12.00;99.90
9542;DHT22;4809;48.224;8.572;2023-05-07T01:31:00;12.00;99.90
9542;DHT22;4809;48.224;8.572;2023-05-07T01:33:29;12.00;99.90
9542;DHT22;4809;48.224;8.572;2023-05-07T01:35:57;12.00;99.90
9542;DHT22;4809;48.224;8.572;2023-05-07T01:38:26;11.90;99.90
9542;DHT22;4809;48.224;8.572;2023-05-07T01:40:52;12.00;99.90
9542;DHT22;4809;48.224;8.572;2023-05-07T01:43:19;12.00;99.90
9542;DHT22;4809;48.224;8.572;2023-05-07T01:45:45;11.90;99.90
9542;DHT22;4809;48.224;8.572;2023-05-07T01:48:12;11.90;99.90
9542;DHT22;4809;48.224;8.572;2023-05-07T01:50:38;11.90;99.90
9542;DHT22;4809;48.224;8.572;2023-05-07T01:53:04;11.90;99.90
9542;DHT22;4809;48.224;8.572;2023-05-07T01:55:30;11.90;99.90
9542;DHT22;4809;48.224;8.572;2023-05-07T01:57:56;11.90;99.90
9542;DHT22;4809;48.224;8.572;2023-05-07T02:00:24;11.90;99.90
9542;DHT22;4809;48.224;8.572;2023-05-07T02:02:50;11.90;99.90
9542;DHT22;4809;48.224;8.572;2023-05-07T02:05:17;11.80;99.90
9542;DHT22;4809;48.224;8.572;2023-05-07T02:07:42;11.80;99.90
9542;DHT22;4809;48.224;8.572;2023-05-07T02:10:08;11.70;99.90
9542;DHT22;4809;48.224;8.572;2023-05-07T02:12:34;11.60;99.90
9542;DHT22;4809;48.224;8.572;2023-05-07T02:14:59;11.50;99.90
9542;DHT22;4809;48.224;8.572;2023-05-07T02:17:25;11.40;99.90
9542;DHT22;4809;48.224;8.572;2023-05-07T02:19:51;11.40;99.90
9542;DHT22;4809;48.224;8.572;2023-05-07T02:22:17;11.30;99.90
9542;DHT22;4809;48.224;8.572;2023-05-07T02:24:43;11.40;99.90
9542;DHT22;4809;48.224;8.572;2023-05-07T02:27:08;11.40;99.90
9542;DHT22;4809;48.224;8.572;2023-05-07T02:29:34;11.30;99.90
9542;DHT22;4809;48.224;8.572;2023-05-07T02:31:59;11.30;99.90
9542;DHT22;4809;48.224;8.572;2023-05-07T02:34:25;11.30;99.90
9542;DHT22;4809;48.224;8.572;2023-05-07T02:36:51;11.30;99.90
9542;DHT22;4809;48.224;8.572;2023-05-07T02:39:16;11.20;99.90
9542;DHT22;4809;48.224;8.572;2023-05-07T02:41:42;11.20;99.90
9542;DHT22;4809;48.224;8.572;2023-05-07T02:44:07;11.20;99.90
9542;DHT22;4809;48.224;8.572;2023-05-07T02:46:34;11.10;99.90
9542;DHT22;4809;48.224;8.572;2023-05-07T02:49:00;11.10;99.90
9542;DHT22;4809;48.224;8.572;2023-05-07T02:51:26;11.00;99.90
9542;DHT22;4809;48.224;8.572;2023-05-07T02:53:52;10.90;99.90
9542;DHT22;4809;48.224;8.572;2023-05-07T02:56:18;10.90;99.90
9542;DHT22;4809;48.224;8.572;2023-05-07T02:58:43;11.00;99.90
9542;DHT22;4809;48.224;8.572;2023-05-07T03:01:09;11.00;99.90
9542;DHT22;4809;48.224;8.572;2023-05-07T03:03:35;11.00;99.90
9542;DHT22;4809;48.224;8.572;2023-05-07T03:06:01;11.00;99.90
9542;DHT22;4809;48.224;8.572;2023-05-07T03:08:27;11.00;99.90
9542;DHT22;4809;48.224;8.572;2023-05-07T03:10:52;11.00;99.90
9542;DHT22;4809;48.224;8.572;2023-05-07T03:13:18;11.00;99.90
9542;DHT22;4809;48.224;8.572;2023-05-07T03:15:44;11.00;99.90
9542;DHT22;4809;48.224;8.572;2023-05-07T03:18:09;10.90;99.90
9542;DHT22;4809;48.224;8.572;2023-05-07T03:20:35;10.80;99.90
9542;DHT22;4809;48.224;8.572;2023-05-07T03:23:02;10.80;99.90
9542;DHT22;4809;48.224;8.572;2023-05-07T03:25:27;10.80;99.90
9542;DHT22;4809;48.224;8.572;2023-05-07T03:27:53;10.80;99.90
9542;DHT22;4809;48.224;8.572;2023-05-07T03:30:19;10.80;99.90
9542;DHT22;4809;48.224;8.572;2023-05-07T03:32:45;10.70;99.90
9542;DHT22;4809;48.224;8.572;2023-05-07T03:35:11;10.70;99.90
9542;DHT22;4809;48.224;8.572;2023-05-07T03:37:37;10.70;99.90
9542;DHT22;4809;48.224;8.572;2023-05-07T03:40:04;10.60;99.90
9542;DHT22;4809;48.224;8.572;2023-05-07T03:42:30;10.60;99.90
9542;DHT22;4809;48.224;8.572;2023-05-07T03:44:56;10.60;99.90
9542;DHT22;4809;48.224;8.572;2023-05-07T03:47:21;10.60;99.90
9542;DHT22;4809;48.224;8.572;2023-05-07T03:49:47;10.60;99.90
9542;DHT22;4809;48.224;8.572;2023-05-07T03:52:14;10.60;99.90
9542;DHT22;4809;48.224;8.572;2023-05-07T03:54:40;10.60;99.90
9542;DHT22;4809;48.224;8.572;2023-05-07T03:57:06;10.60;99.90
9542;DHT22;4809;48.224;8.572;2023-05-07T03:59:31;10.60;99.90
9542;DHT22;4809;48.224;8.572;2023-05-07T04:01:58;10.60;99.90
9542;DHT22;4809;48.224;8.572;2023-05-07T04:04:23;10.60;99.90
9542;DHT22;4809;48.224;8.572;2023-05-07T04:06:49;10.60;99.90
9542;DHT22;4809;48.224;8.572;2023-05-07T04:09:15;10.50;99.90
9542;DHT22;4809;48.224;8.572;2023-05-07T04:11:40;10.40;99.90
9542;DHT22;4809;48.224;8.572;2023-05-07T04:14:06;10.50;99.90
9542;DHT22;4809;48.224;8.572;2023-05-07T04:16:32;10.40;99.90
9542;DHT22;4809;48.224;8.572;2023-05-07T04:18:57;10.40;99.90
9542;DHT22;4809;48.224;8.572;2023-05-07T04:21:23;10.40;99.90
9542;DHT22;4809;48.224;8.572;2023-05-07T04:23:49;10.30;99.90
9542;DHT22;4809;48.224;8.572;2023-05-07T04:26:15;10.30;99.90
9542;DHT22;4809;48.224;8.572;2023-05-07T04:28:41;10.30;99.90
9542;DHT22;4809;48.224;8.572;2023-05-07T04:31:07;10.30;99.90
9542;DHT22;4809;48.224;8.572;2023-05-07T04:33:33;10.40;99.90
9542;DHT22;4809;48.224;8.572;2023-05-07T04:36:03;10.50;99.90
9542;DHT22;4809;48.224;8.572;2023-05-07T04:38:32;10.60;99.90
9542;DHT22;4809;48.224;8.572;2023-05-07T04:41:08;10.70;99.90
9542;DHT22;4809;48.224;8.572;2023-05-07T04:43:34;10.80;99.90
9542;DHT22;4809;48.224;8.572;2023-05-07T04:45:59;10.90;99.90
9542;DHT22;4809;48.224;8.572;2023-05-07T04:48:25;11.10;99.90
9542;DHT22;4809;48.224;8.572;2023-05-07T04:50:52;11.20;99.90
9542;DHT22;4809;48.224;8.572;2023-05-07T04:53:18;11.20;99.90
9542;DHT22;4809;48.224;8.572;2023-05-07T04:55:44;11.30;99.90
9542;DHT22;4809;48.224;8.572;2023-05-07T04:58:11;11.40;99.90
9542;DHT22;4809;48.224;8.572;2023-05-07T05:00:36;11.50;99.90
9542;DHT22;4809;48.224;8.572;2023-05-07T05:03:02;11.70;99.90
9542;DHT22;4809;48.224;8.572;2023-05-07T05:05:28;11.80;99.90
9542;DHT22;4809;48.224;8.572;2023-05-07T05:07:54;11.90;99.90
9542;DHT22;4809;48.224;8.572;2023-05-07T05:10:20;12.10;99.90
9542;DHT22;4809;48.224;8.572;2023-05-07T05:12:46;12.10;99.90
9542;DHT22;4809;48.224;8.572;2023-05-07T05:15:12;12.10;99.90
9542;DHT22;4809;48.224;8.572;2023-05-07T05:17:38;12.20;99.90
9542;DHT22;4809;48.224;8.572;2023-05-07T05:20:05;12.30;99.90
9542;DHT22;4809;48.224;8.572;2023-05-07T05:22:31;12.40;99.90
9542;DHT22;4809;48.224;8.572;2023-05-07T05:24:57;12.50;99.90
9542;DHT22;4809;48.224;8.572;2023-05-07T05:27:23;12.70;99.90
9542;DHT22;4809;48.224;8.572;2023-05-07T05:29:49;12.90;99.90
9542;DHT22;4809;48.224;8.572;2023-05-07T05:32:14;13.10;99.90
9542;DHT22;4809;48.224;8.572;2023-05-07T05:34:40;13.30;99.90
9542;DHT22;4809;48.224;8.572;2023-05-07T05:37:06;13.40;99.90
9542;DHT22;4809;48.224;8.572;2023-05-07T05:39:32;13.50;99.90
9542;DHT22;4809;48.224;8.572;2023-05-07T05:41:57;13.60;99.90
9542;DHT22;4809;48.224;8.572;2023-05-07T05:44:23;13.80;99.90
9542;DHT22;4809;48.224;8.572;2023-05-07T05:46:48;14.00;99.90
9542;DHT22;4809;48.224;8.572;2023-05-07T05:49:17;14.10;99.90
9542;DHT22;4809;48.224;8.572;2023-05-07T05:51:43;14.30;99.90
9542;DHT22;4809;48.224;8.572;2023-05-07T05:54:09;14.40;99.90
9542;DHT22;4809;48.224;8.572;2023-05-07T05:56:34;14.40;99.90
9542;DHT22;4809;48.224;8.572;2023-05-07T05:59:03;14.50;99.90
9542;DHT22;4809;48.224;8.572;2023-05-07T06:01:28;14.50;99.90
9542;DHT22;4809;48.224;8.572;2023-05-07T06:03:54;14.60;99.90
9542;DHT22;4809;48.224;8.572;2023-05-07T06:06:20;14.70;99.90
9542;DHT22;4809;48.224;8.572;2023-05-07T06:08:45;14.80;99.90
9542;DHT22;4809;48.224;8.572;2023-05-07T06:11:11;14.90;99.90
9542;DHT22;4809;48.224;8.572;2023-05-07T06:13:36;15.00;99.90
9542;DHT22;4809;48.224;8.572;2023-05-07T06:16:02;15.10;99.90
9542;DHT22;4809;48.224;8.572;2023-05-07T06:18:28;15.10;99.90
9542;DHT22;4809;48.224;8.572;2023-05-07T06:20:53;15.00;99.90
9542;DHT22;4809;48.224;8.572;2023-05-07T06:23:19;15.00;99.90
9542;DHT22;4809;48.224;8.572;2023-05-07T06:25:49;15.00;99.90
9542;DHT22;4809;48.224;8.572;2023-05-07T06:28:18;15.10;99.90
9542;DHT22;4809;48.224;8.572;2023-05-07T06:30:43;15.10;99.90
9542;DHT22;4809;48.224;8.572;2023-05-07T06:33:09;15.20;99.90
9542;DHT22;4809;48.224;8.572;2023-05-07T06:35:35;15.20;99.90
9542;DHT22;4809;48.224;8.572;2023-05-07T06:38:00;15.20;99.90
9542;DHT22;4809;48.224;8.572;2023-05-07T06:40:27;15.30;99.90
9542;DHT22;4809;48.224;8.572;2023-05-07T06:42:52;15.30;99.90
9542;DHT22;4809;48.224;8.572;2023-05-07T06:45:19;15.30;99.90
9542;DHT22;4809;48.224;8.572;2023-05-07T06:47:45;15.20;99.90
9542;DHT22;4809;48.224;8.572;2023-05-07T06:50:11;15.20;99.90
9542;DHT22;4809;48.224;8.572;2023-05-07T06:52:37;15.10;99.90
9542;DHT22;4809;48.224;8.572;2023-05-07T06:55:03;15.10;99.90
9542;DHT22;4809;48.224;8.572;2023-05-07T06:57:28;15.10;99.90
9542;DHT22;4809;48.224;8.572;2023-05-07T06:59:54;15.20;99.90
9542;DHT22;4809;48.224;8.572;2023-05-07T07:02:20;15.50;99.90
9542;DHT22;4809;48.224;8.572;2023-05-07T07:04:45;15.80;99.90
9542;DHT22;4809;48.224;8.572;2023-05-07T07:07:11;16.20;99.90
9542;DHT22;4809;48.224;8.572;2023-05-07T07:09:37;16.70;99.90
9542;DHT22;4809;48.224;8.572;2023-05-07T07:12:02;17.10;99.90
9542;DHT22;4809;48.224;8.572;2023-05-07T07:14:28;17.50;99.90
9542;DHT22;4809;48.224;8.572;2023-05-07T07:16:54;17.80;99.90
9542;DHT22;4809;48.224;8.572;2023-05-07T07:19:19;18.00;99.90
9542;DHT22;4809;48.224;8.572;2023-05-07T07:21:45;18.30;99.90
9542;DHT22;4809;48.224;8.572;2023-05-07T07:24:12;18.60;99.90
9542;DHT22;4809;48.224;8.572;2023-05-07T07:26:38;18.90;99.90
9542;DHT22;4809;48.224;8.572;2023-05-07T07:29:05;19.00;99.90
9542;DHT22;4809;48.224;8.572;2023-05-07T07:31:32;18.80;99.90
9542;DHT22;4809;48.224;8.572;2023-05-07T07:33:58;18.70;99.90
9542;DHT22;4809;48.224;8.572;2023-05-07T07:36:23;18.50;99.90
9542;DHT22;4809;48.224;8.572;2023-05-07T07:38:49;18.80;99.90
9542;DHT22;4809;48.224;8.572;2023-05-07T07:41:14;18.60;99.90
9542;DHT22;4809;48.224;8.572;2023-05-07T07:43:40;18.60;99.90
9542;DHT22;4809;48.224;8.572;2023-05-07T07:46:06;18.90;99.90
9542;DHT22;4809;48.224;8.572;2023-05-07T07:48:31;19.10;99.90
9542;DHT22;4809;48.224;8.572;2023-05-07T07:50:57;19.10;99.90
9542;DHT22;4809;48.224;8.572;2023-05-07T07:53:23;19.10;99.90
9542;DHT22;4809;48.224;8.572;2023-05-07T07:55:48;19.10;99.90
9542;DHT22;4809;48.224;8.572;2023-05-07T07:58:14;19.20;99.90
9542;DHT22;4809;48.224;8.572;2023-05-07T08:00:40;19.10;99.90
9542;DHT22;4809;48.224;8.572;2023-05-07T08:03:05;18.80;99.90
9542;DHT22;4809;48.224;8.572;2023-05-07T08:05:34;18.80;99.90
9542;DHT22;4809;48.224;8.572;2023-05-07T08:07:59;18.90;99.90
9542;DHT22;4809;48.224;8.572;2023-05-07T08:10:25;19.30;99.90
9542;DHT22;4809;48.224;8.572;2023-05-07T08:12:51;19.60;99.90
9542;DHT22;4809;48.224;8.572;2023-05-07T08:15:17;20.10;99.90
9542;DHT22;4809;48.224;8.572;2023-05-07T08:17:43;20.30;99.90
9542;DHT22;4809;48.224;8.572;2023-05-07T08:20:09;20.60;99.90
9542;DHT22;4809;48.224;8.572;2023-05-07T08:22:35;20.50;99.90
9542;DHT22;4809;48.224;8.572;2023-05-07T08:25:02;20.60;99.90
9542;DHT22;4809;48.224;8.572;2023-05-07T08:27:28;20.90;99.90
9542;DHT22;4809;48.224;8.572;2023-05-07T08:29:53;21.30;99.90
9542;DHT22;4809;48.224;8.572;2023-05-07T08:32:20;21.30;99.90
9542;DHT22;4809;48.224;8.572;2023-05-07T08:34:47;21.10;99.90
9542;DHT22;4809;48.224;8.572;2023-05-07T08:37:12;20.80;99.90
9542;DHT22;4809;48.224;8.572;2023-05-07T08:39:38;20.60;99.90
9542;DHT22;4809;48.224;8.572;2023-05-07T08:42:04;20.90;99.90
9542;DHT22;4809;48.224;8.572;2023-05-07T08:44:33;21.40;99.90
9542;DHT22;4809;48.224;8.572;2023-05-07T08:47:01;21.70;99.90
9542;DHT22;4809;48.224;8.572;2023-05-07T08:49:27;22.00;98.50
9542;DHT22;4809;48.224;8.572;2023-05-07T08:51:53;22.10;99.20
9542;DHT22;4809;48.224;8.572;2023-05-07T08:54:20;22.20;97.20
9542;DHT22;4809;48.224;8.572;2023-05-07T08:56:46;22.30;96.10
9542;DHT22;4809;48.224;8.572;2023-05-07T08:59:12;22.40;95.60
9542;DHT22;4809;48.224;8.572;2023-05-07T09:01:37;22.50;95.20
9542;DHT22;4809;48.224;8.572;2023-05-07T09:04:04;22.40;94.20
9542;DHT22;4809;48.224;8.572;2023-05-07T09:06:31;22.70;93.90
9542;DHT22;4809;48.224;8.572;2023-05-07T09:08:56;22.80;93.20
9542;DHT22;4809;48.224;8.572;2023-05-07T09:11:24;23.10;91.80
9542;DHT22;4809;48.224;8.572;2023-05-07T09:13:54;23.10;93.60
9542;DHT22;4809;48.224;8.572;2023-05-07T09:16:22;23.20;91.80
9542;DHT22;4809;48.224;8.572;2023-05-07T09:18:51;23.30;94.10
9542;DHT22;4809;48.224;8.572;2023-05-07T09:21:18;23.40;92.10
9542;DHT22;4809;48.224;8.572;2023-05-07T09:23:44;23.40;93.50
9542;DHT22;4809;48.224;8.572;2023-05-07T09:26:09;23.50;91.50
9542;DHT22;4809;48.224;8.572;2023-05-07T09:28:43;23.30;90.80
9542;DHT22;4809;48.224;8.572;2023-05-07T09:31:11;23.40;91.00
9542;DHT22;4809;48.224;8.572;2023-05-07T09:33:37;23.60;89.30
9542;DHT22;4809;48.224;8.572;2023-05-07T09:36:07;23.70;89.40
9542;DHT22;4809;48.224;8.572;2023-05-07T09:38:35;23.50;87.30
9542;DHT22;4809;48.224;8.572;2023-05-07T09:43:32;23.00;88.90
9542;DHT22;4809;48.224;8.572;2023-05-07T09:46:09;22.70;86.40
9542;DHT22;4809;48.224;8.572;2023-05-07T09:48:38;22.70;91.20
9542;DHT22;4809;48.224;8.572;2023-05-07T09:51:15;22.60;91.20
9542;DHT22;4809;48.224;8.572;2023-05-07T09:53:42;22.30;91.70
9542;DHT22;4809;48.224;8.572;2023-05-07T09:56:08;22.30;91.10
9542;DHT22;4809;48.224;8.572;2023-05-07T09:58:37;22.30;91.70
9542;DHT22;4809;48.224;8.572;2023-05-07T10:01:04;22.40;93.00
9542;DHT22;4809;48.224;8.572;2023-05-07T10:03:31;22.40;92.90
9542;DHT22;4809;48.224;8.572;2023-05-07T10:05:58;22.40;93.70
9542;DHT22;4809;48.224;8.572;2023-05-07T10:08:24;22.50;93.60
9542;DHT22;4809;48.224;8.572;2023-05-07T10:10:50;22.50;93.50
9542;DHT22;4809;48.224;8.572;2023-05-07T10:13:17;22.50;93.70
9542;DHT22;4809;48.224;8.572;2023-05-07T10:15:44;22.60;94.10
9542;DHT22;4809;48.224;8.572;2023-05-07T10:18:12;22.60;93.80
9542;DHT22;4809;48.224;8.572;2023-05-07T10:20:39;22.60;93.90
9542;DHT22;4809;48.224;8.572;2023-05-07T10:23:05;22.40;94.00
9542;DHT22;4809;48.224;8.572;2023-05-07T10:25:32;22.70;92.40
9542;DHT22;4809;48.224;8.572;2023-05-07T10:28:03;22.90;93.00
9542;DHT22;4809;48.224;8.572;2023-05-07T10:30:51;22.80;91.20
9542;DHT22;4809;48.224;8.572;2023-05-07T10:33:25;22.60;92.00
9542;DHT22;4809;48.224;8.572;2023-05-07T10:35:51;22.60;91.90
9542;DHT22;4809;48.224;8.572;2023-05-07T10:38:21;22.60;92.40
9542;DHT22;4809;48.224;8.572;2023-05-07T10:40:46;22.60;91.70
9542;DHT22;4809;48.224;8.572;2023-05-07T10:43:12;22.60;90.50
9542;DHT22;4809;48.224;8.572;2023-05-07T10:45:38;22.80;91.40
9542;DHT22;4809;48.224;8.572;2023-05-07T10:48:15;23.00;90.80
9542;DHT22;4809;48.224;8.572;2023-05-07T10:50:42;23.00;90.70
9542;DHT22;4809;48.224;8.572;2023-05-07T10:55:51;22.50;91.90
9542;DHT22;4809;48.224;8.572;2023-05-07T10:58:24;22.30;92.60
9542;DHT22;4809;48.224;8.572;2023-05-07T11:00:59;22.00;90.80
9542;DHT22;4809;48.224;8.572;2023-05-07T11:03:25;21.80;92.00
9542;DHT22;4809;48.224;8.572;2023-05-07T11:06:11;21.50;92.40
9542;DHT22;4809;48.224;8.572;2023-05-07T11:11:18;21.10;93.80
9542;DHT22;4809;48.224;8.572;2023-05-07T11:13:46;20.90;95.20
9542;DHT22;4809;48.224;8.572;2023-05-07T11:16:18;20.60;97.20
9542;DHT22;4809;48.224;8.572;2023-05-07T11:18:52;20.30;97.90
9542;DHT22;4809;48.224;8.572;2023-05-07T11:21:40;20.10;99.30
9542;DHT22;4809;48.224;8.572;2023-05-07T11:24:08;19.80;99.90
9542;DHT22;4809;48.224;8.572;2023-05-07T11:26:44;19.70;99.90
9542;DHT22;4809;48.224;8.572;2023-05-07T11:29:16;19.50;99.90
9542;DHT22;4809;48.224;8.572;2023-05-07T11:31:42;19.40;99.90
9542;DHT22;4809;48.224;8.572;2023-05-07T11:34:08;19.20;99.90
9542;DHT22;4809;48.224;8.572;2023-05-07T11:36:34;19.10;99.90
9542;DHT22;4809;48.224;8.572;2023-05-07T11:39:00;19.00;99.90
9542;DHT22;4809;48.224;8.572;2023-05-07T11:41:36;18.80;99.90
9542;DHT22;4809;48.224;8.572;2023-05-07T11:44:04;18.80;99.90
9542;DHT22;4809;48.224;8.572;2023-05-07T11:46:30;18.60;99.90
9542;DHT22;4809;48.224;8.572;2023-05-07T11:48:56;18.60;99.90
9542;DHT22;4809;48.224;8.572;2023-05-07T11:51:25;18.50;99.90
9542;DHT22;4809;48.224;8.572;2023-05-07T11:53:52;18.30;99.90
9542;DHT22;4809;48.224;8.572;2023-05-07T11:56:18;18.10;99.90
9542;DHT22;4809;48.224;8.572;2023-05-07T11:58:45;17.90;99.90
9542;DHT22;4809;48.224;8.572;2023-05-07T12:01:13;17.70;99.90
9542;DHT22;4809;48.224;8.572;2023-05-07T12:03:44;17.40;99.90
9542;DHT22;4809;48.224;8.572;2023-05-07T12:06:12;17.30;99.90
9542;DHT22;4809;48.224;8.572;2023-05-07T12:08:39;17.10;99.90
9542;DHT22;4809;48.224;8.572;2023-05-07T12:11:13;17.00;99.90
9542;DHT22;4809;48.224;8.572;2023-05-07T12:13:39;16.70;99.90
9542;DHT22;4809;48.224;8.572;2023-05-07T12:16:06;16.40;99.90
9542;DHT22;4809;48.224;8.572;2023-05-07T12:18:32;16.20;99.90
9542;DHT22;4809;48.224;8.572;2023-05-07T12:20:59;15.90;99.90
9542;DHT22;4809;48.224;8.572;2023-05-07T12:23:24;15.70;99.90
9542;DHT22;4809;48.224;8.572;2023-05-07T12:25:50;15.60;99.90
9542;DHT22;4809;48.224;8.572;2023-05-07T12:28:17;15.40;99.90
9542;DHT22;4809;48.224;8.572;2023-05-07T12:30:44;15.40;99.90
9542;DHT22;4809;48.224;8.572;2023-05-07T12:33:11;15.30;99.90
9542;DHT22;4809;48.224;8.572;2023-05-07T12:35:41;15.40;99.90
9542;DHT22;4809;48.224;8.572;2023-05-07T12:38:12;15.40;99.90
9542;DHT22;4809;48.224;8.572;2023-05-07T12:40:40;15.40;99.90
9542;DHT22;4809;48.224;8.572;2023-05-07T12:43:07;15.40;99.90
9542;DHT22;4809;48.224;8.572;2023-05-07T12:45:41;15.50;99.90
9542;DHT22;4809;48.224;8.572;2023-05-07T12:48:10;15.60;99.90
9542;DHT22;4809;48.224;8.572;2023-05-07T12:50:36;15.60;99.90
9542;DHT22;4809;48.224;8.572;2023-05-07T12:53:04;15.60;99.90
9542;DHT22;4809;48.224;8.572;2023-05-07T12:55:41;15.50;99.90
9542;DHT22;4809;48.224;8.572;2023-05-07T12:58:08;15.50;99.90
9542;DHT22;4809;48.224;8.572;2023-05-07T13:00:37;15.50;99.90
9542;DHT22;4809;48.224;8.572;2023-05-07T13:03:04;15.60;99.90
9542;DHT22;4809;48.224;8.572;2023-05-07T13:05:31;15.60;99.90
9542;DHT22;4809;48.224;8.572;2023-05-07T13:07:57;15.70;99.90
9542;DHT22;4809;48.224;8.572;2023-05-07T13:10:23;15.70;99.90
9542;DHT22;4809;48.224;8.572;2023-05-07T13:12:49;15.80;99.90
9542;DHT22;4809;48.224;8.572;2023-05-07T13:15:15;15.80;99.90
9542;DHT22;4809;48.224;8.572;2023-05-07T13:17:44;15.90;99.90
9542;DHT22;4809;48.224;8.572;2023-05-07T13:20:10;16.00;99.90
9542;DHT22;4809;48.224;8.572;2023-05-07T13:22:37;16.10;99.90
9542;DHT22;4809;48.224;8.572;2023-05-07T13:25:03;16.40;99.90
9542;DHT22;4809;48.224;8.572;2023-05-07T13:27:28;16.70;99.90
9542;DHT22;4809;48.224;8.572;2023-05-07T13:29:56;17.00;99.90
9542;DHT22;4809;48.224;8.572;2023-05-07T13:32:22;17.40;99.90
9542;DHT22;4809;48.224;8.572;2023-05-07T13:34:48;17.60;99.90
9542;DHT22;4809;48.224;8.572;2023-05-07T13:37:13;17.80;99.90
9542;DHT22;4809;48.224;8.572;2023-05-07T13:39:39;18.30;99.90
9542;DHT22;4809;48.224;8.572;2023-05-07T13:42:06;18.60;99.90
9542;DHT22;4809;48.224;8.572;2023-05-07T13:44:31;18.90;99.90
9542;DHT22;4809;48.224;8.572;2023-05-07T13:46:57;19.20;99.90
9542;DHT22;4809;48.224;8.572;2023-05-07T13:49:23;19.70;99.90
9542;DHT22;4809;48.224;8.572;2023-05-07T13:51:49;19.80;99.90
9542;DHT22;4809;48.224;8.572;2023-05-07T13:54:15;20.10;99.90
9542;DHT22;4809;48.224;8.572;2023-05-07T13:56:41;20.30;99.90
9542;DHT22;4809;48.224;8.572;2023-05-07T13:59:07;20.20;99.90
9542;DHT22;4809;48.224;8.572;2023-05-07T14:01:36;20.20;99.90
9542;DHT22;4809;48.224;8.572;2023-05-07T14:04:02;20.30;99.90
9542;DHT22;4809;48.224;8.572;2023-05-07T14:06:27;20.70;99.90
9542;DHT22;4809;48.224;8.572;2023-05-07T14:08:53;20.90;99.90
9542;DHT22;4809;48.224;8.572;2023-05-07T14:11:19;21.10;99.90
9542;DHT22;4809;48.224;8.572;2023-05-07T14:13:44;21.10;99.90
9542;DHT22;4809;48.224;8.572;2023-05-07T14:16:10;21.00;99.90
9542;DHT22;4809;48.224;8.572;2023-05-07T14:18:36;20.70;99.90
9542;DHT22;4809;48.224;8.572;2023-05-07T14:21:05;20.30;99.90
9542;DHT22;4809;48.224;8.572;2023-05-07T14:23:35;19.90;99.90
9542;DHT22;4809;48.224;8.572;2023-05-07T14:26:00;19.50;99.90
9542;DHT22;4809;48.224;8.572;2023-05-07T14:28:26;19.20;99.90
9542;DHT22;4809;48.224;8.572;2023-05-07T14:30:52;18.80;99.90
9542;DHT22;4809;48.224;8.572;2023-05-07T14:33:17;18.50;99.90
9542;DHT22;4809;48.224;8.572;2023-05-07T14:35:43;18.30;99.90
9542;DHT22;4809;48.224;8.572;2023-05-07T14:38:13;18.20;99.90
9542;DHT22;4809;48.224;8.572;2023-05-07T14:40:39;18.20;99.90
9542;DHT22;4809;48.224;8.572;2023-05-07T14:43:04;18.10;99.90
9542;DHT22;4809;48.224;8.572;2023-05-07T14:45:30;18.00;99.90
9542;DHT22;4809;48.224;8.572;2023-05-07T14:47:55;17.90;99.90
9542;DHT22;4809;48.224;8.572;2023-05-07T14:50:21;17.80;99.90
9542;DHT22;4809;48.224;8.572;2023-05-07T14:52:47;17.60;99.90
9542;DHT22;4809;48.224;8.572;2023-05-07T14:55:12;17.60;99.90
9542;DHT22;4809;48.224;8.572;2023-05-07T14:57:45;17.70;99.90
9542;DHT22;4809;48.224;8.572;2023-05-07T15:00:11;17.60;99.90
9542;DHT22;4809;48.224;8.572;2023-05-07T15:02:37;17.60;99.90
9542;DHT22;4809;48.224;8.572;2023-05-07T15:05:02;17.70;99.90
9542;DHT22;4809;48.224;8.572;2023-05-07T15:07:32;17.70;99.90
9542;DHT22;4809;48.224;8.572;2023-05-07T15:09:59;17.60;99.90
9542;DHT22;4809;48.224;8.572;2023-05-07T15:12:25;17.60;99.90
9542;DHT22;4809;48.224;8.572;2023-05-07T15:14:50;17.60;99.90
9542;DHT22;4809;48.224;8.572;2023-05-07T15:17:16;17.70;99.90
9542;DHT22;4809;48.224;8.572;2023-05-07T15:19:42;17.80;99.90
9542;DHT22;4809;48.224;8.572;2023-05-07T15:22:07;17.80;99.90
9542;DHT22;4809;48.224;8.572;2023-05-07T15:24:33;17.70;99.90
9542;DHT22;4809;48.224;8.572;2023-05-07T15:26:59;17.70;99.90
9542;DHT22;4809;48.224;8.572;2023-05-07T15:29:24;17.70;99.90
9542;DHT22;4809;48.224;8.572;2023-05-07T15:31:50;17.80;99.90
9542;DHT22;4809;48.224;8.572;2023-05-07T15:34:17;17.80;99.90
9542;DHT22;4809;48.224;8.572;2023-05-07T15:36:43;17.90;99.90
9542;DHT22;4809;48.224;8.572;2023-05-07T15:39:08;17.90;99.90
9542;DHT22;4809;48.224;8.572;2023-05-07T15:41:35;17.80;99.90
9542;DHT22;4809;48.224;8.572;2023-05-07T15:44:02;17.90;99.90
9542;DHT22;4809;48.224;8.572;2023-05-07T15:46:28;18.00;99.90
9542;DHT22;4809;48.224;8.572;2023-05-07T15:48:54;18.00;99.90
9542;DHT22;4809;48.224;8.572;2023-05-07T15:51:20;18.20;99.90
9542;DHT22;4809;48.224;8.572;2023-05-07T15:53:47;18.30;99.90
9542;DHT22;4809;48.224;8.572;2023-05-07T15:56:13;18.40;99.90
9542;DHT22;4809;48.224;8.572;2023-05-07T15:58:39;18.40;99.90
9542;DHT22;4809;48.224;8.572;2023-05-07T16:01:05;18.50;99.90
9542;DHT22;4809;48.224;8.572;2023-05-07T16:03:31;18.70;99.90
9542;DHT22;4809;48.224;8.572;2023-05-07T16:05:57;18.90;99.90